Aviation Digital Data Service (ADDS)

Output produced by TAFs form (0435 UTC 19 April 2015)
found at http://aviationweather.gov/adds/tafs/
 
KEGE 190433Z 1905/1924 00000KT P6SM VCSH SCT020 OVC150 
     FM190600 VRB03KT P6SM VCSH SCT025 OVC040 
     FM191000 VRB03KT P6SM VCFG SCT008 OVC025 
     FM192000 27008KT P6SM BKN050 AMD LTD TO CLD VIS AND WIND 1905/1913